Etusivu
METAR-TAF:

METAR-TAF

Lentoasemat :

Nižni Novgorodin lentoasema

Nižni Novgorod, Venäjä

Leveyspiiri: 56-19-48N, Pituuspiiri: 044-00E, korkeus merenpinnasta: 78 m

Tämänhetkinen sää

Tämä raportti tehtiin 13 minuuttia sitten, kello 19.00 UTC
Tuuli 8 kn idästä
Lämpötila 21°C
Kosteus 78%
Ilmanpaine 1012 hPa
Näkyvyys 10 km tai enemmän
Hajanaisia pilviä 4000 ft:n korkeudessa

METAR: UWGG 211900Z 08004MPS 9999 SCT040 21/17 Q1012 R36R/090070 NOSIG

Aika: 22:13 (19:13 UTC)

Sääennuste

Tämä raportti tehtiin 2 tuntia ja 23 minuuttia sitten, kello 16.50 UTC
Ennuste voimassa 21. päivästä klo 18 UTC - 22. päivään klo 18 UTC
Tuuli 6 kn idästä
Näkyvyys: 6000 m
Hajonneita pilviä 2000 ft:n korkeudessa

TAF: UWGG 211650Z 2118/2218 08003MPS 6000 BKN020 TX24/2212Z TN18/2203Z

Säähavainnot ja -ennusteet yli 4000 lentoasemalta (METAR- ja TAF-raportit).

Käytössä olevat sääasemat on merkitty karttaan keltaisilla ja punaisilla pisteillä.

Aseta hiiri pisteen päälle nähdäksesi sääaseman nimen.

Klikkaa sitten nähdäksesi säähavainnot ja -ennusteet.

Kartan vaihtaminen: klikkaa mustalla rastilla varustettuja vihreitä pisteitä, niin voit zoomata sisään; viivalla varustettua vihreää pistettä, niin voit zoomata ulos tai vihreitä nuolia, niin pääset viereisille kartoille.


METAR-TAF: